This is the latest recevied weather packets stored in our database for station/object KN6ZYR. If no packets are shown the sender has not sent any weather packets the latest 10 day(s).
| Time | Temp. | Humidity | Pressure | Rain* | Wind** | Luminosity | Snow |
|---|---|---|---|---|---|---|---|
| 1777553038 | 8.89° C | 45% | 1020.8 hPa | 0 mm | - | 0 W/m² | - |
| 1777552733 | 8.89° C | 52% | 1020.9 hPa | 0 mm | - | 0 W/m² | - |
| 1777552429 | 10.56° C | 41% | 1020.8 hPa | 0 mm | - | 0 W/m² | - |
| 1777552126 | 10.56° C | 40% | 1020.8 hPa | 0 mm | - | 0 W/m² | - |
| 1777551823 | 10.56° C | 40% | 1020.6 hPa | 0 mm | - | 0 W/m² | - |
| 1777551521 | 10.56° C | 40% | 1020.9 hPa | 0 mm | - | 0 W/m² | - |
| 1777551217 | 10.56° C | 41% | 1020.9 hPa | 0 mm | - | 0 W/m² | - |
| 1777550914 | 10.56° C | 42% | 1021 hPa | 0 mm | - | 0 W/m² | - |
| 1777550611 | 10.56° C | 42% | 1020.9 hPa | 0 mm | - | 0 W/m² | - |
| 1777550307 | 10° C | 45% | 1020.5 hPa | 0 mm | - | 0 W/m² | - |
| 1777550003 | 10° C | 48% | 1020.8 hPa | 0 mm | - | 0 W/m² | - |
| 1777549700 | 10.56° C | 49% | 1020.8 hPa | 0 mm | - | 0 W/m² | - |
| 1777549395 | 11.11° C | 41% | 1020.8 hPa | 0 mm | - | 0 W/m² | - |
| 1777549093 | 11.11° C | 41% | 1020.7 hPa | 0 mm | - | 0 W/m² | - |
| 1777548789 | 11.11° C | 40% | 1020.8 hPa | 0 mm | - | 0 W/m² | - |
| 1777548486 | 11.11° C | 40% | 1020.8 hPa | 0 mm | - | 0 W/m² | - |
| 1777548183 | 11.67° C | 40% | 1020.8 hPa | 0 mm | - | 0 W/m² | - |
| 1777547879 | 11.11° C | 41% | 1020.7 hPa | 0 mm | - | 0 W/m² | - |
| 1777547575 | 11.11° C | 42% | 1020.8 hPa | 0 mm | - | 0 W/m² | - |
| 1777547273 | 10.56° C | 43% | 1020.9 hPa | 0 mm | - | 0 W/m² | - |
| 1777546969 | 10° C | 47% | 1021.2 hPa | 0 mm | - | 0 W/m² | - |
| 1777546667 | 9.44° C | 51% | 1020.8 hPa | 0 mm | - | 0 W/m² | - |
| 1777546363 | 9.44° C | 52% | 1020.9 hPa | 0 mm | - | 0 W/m² | - |
| 1777546060 | 10° C | 51% | 1020.9 hPa | 0 mm | - | 0 W/m² | - |
| 1777545756 | 11.11° C | 51% | 1021 hPa | 0 mm | - | 0 W/m² | - |
* Rain latest hour (hover to see other rain measurements)
** Current wind speed in m/s (hover to see current wind gust speed)